Time;durP1;ratioP1;P1;durP2;ratioP2;P2;SDS_P1;SDS_P2;PMS_P1;PMS_P2;Temp;Humidity;BMP_temperature;BMP_pressure;BME280_temperature;BME280_humidity;BME280_pressure;Samples;Min_cycle;Max_cycle;Signal;HPM_P1;HPM_P2
2023/12/02 00:00:27;;;;;;;47.47;15.95;;;;;;;;;;5095236;28;20048;-78
2023/12/02 00:02:53;;;;;;;44.10;14.70;;;;;;;;;;5078883;28;20070;-81
2023/12/02 00:05:19;;;;;;;45.67;15.68;;;;;;;;;;5097014;28;20040;-80
2023/12/02 00:07:45;;;;;;;48.13;15.50;;;;;;;;;;5094983;28;20044;-78
2023/12/02 00:10:12;;;;;;;46.90;16.48;;;;;;;;;;5096145;28;20143;-79
2023/12/02 00:12:38;;;;;;;47.00;14.85;;;;;;;;;;5094915;28;20388;-79
2023/12/02 00:15:04;;;;;;;48.25;16.02;;;;;;;;;;5093642;28;20048;-81
2023/12/02 00:17:30;;;;;;;44.95;14.38;;;;;;;;;;5093173;28;20047;-80
2023/12/02 00:19:56;;;;;;;47.92;15.55;;;;;;;;;;5112009;28;20044;-80
2023/12/02 00:22:23;;;;;;;44.28;15.68;;;;;;;;;;5098801;28;20048;-79
2023/12/02 00:24:49;;;;;;;45.35;15.20;;;;;;;;;;5101032;28;20044;-77
2023/12/02 00:27:16;;;;;;;43.53;14.18;;;;;;;;;;5099987;28;20055;-78
2023/12/02 00:29:43;;;;;;;42.20;14.05;;;;;;;;;;5097983;28;20165;-80
2023/12/02 00:32:09;;;;;;;47.77;15.37;;;;;;;;;;5095790;28;20495;-79
2023/12/02 00:34:35;;;;;;;44.85;14.60;;;;;;;;;;5094093;28;20051;-79
2023/12/02 00:37:01;;;;;;;48.45;14.82;;;;;;;;;;5093471;28;20040;-79
2023/12/02 00:39:27;;;;;;;44.20;14.50;;;;;;;;;;5092240;28;20044;-79
2023/12/02 00:41:54;;;;;;;44.40;14.93;;;;;;;;;;5075827;28;20044;-81
2023/12/02 00:44:20;;;;;;;47.72;15.48;;;;;;;;;;5092247;28;20051;-80
2023/12/02 00:46:46;;;;;;;43.08;14.82;;;;;;;;;;5093762;28;20462;-80
2023/12/02 00:49:12;;;;;;;48.45;15.88;;;;;;;;;;5092391;28;20079;-79
2023/12/02 00:51:39;;;;;;;38.03;13.63;;;;;;;;;;5092367;28;20501;-80
2023/12/02 00:54:05;;;;;;;44.00;15.63;;;;;;;;;;5127187;28;20048;-79
2023/12/02 00:56:31;;;;;;;51.20;15.90;;;;;;;;;;5094992;28;20480;-80
2023/12/02 00:58:57;;;;;;;46.78;14.75;;;;;;;;;;5096827;28;20491;-80
2023/12/02 01:01:23;;;;;;;48.85;16.48;;;;;;;;;;5063047;28;20127;-79
2023/12/02 01:03:49;;;;;;;54.38;15.93;;;;;;;;;;5079306;28;20052;-81
2023/12/02 01:06:15;;;;;;;45.03;14.55;;;;;;;;;;5096809;28;20548;-79
2023/12/02 01:08:41;;;;;;;46.90;15.18;;;;;;;;;;5098877;28;20054;-79
2023/12/02 01:11:07;;;;;;;45.63;15.55;;;;;;;;;;5097336;28;20067;-79
2023/12/02 01:13:34;;;;;;;42.30;14.77;;;;;;;;;;5097140;28;20509;-80
2023/12/02 01:16:00;;;;;;;42.20;15.05;;;;;;;;;;5095506;28;20147;-79
2023/12/02 01:18:26;;;;;;;43.35;14.88;;;;;;;;;;5095394;28;20048;-80
2023/12/02 01:20:52;;;;;;;41.97;14.70;;;;;;;;;;5078513;28;20044;-80
2023/12/02 01:23:18;;;;;;;45.38;14.48;;;;;;;;;;5079515;28;20152;-80
2023/12/02 01:25:44;;;;;;;42.13;15.23;;;;;;;;;;5096284;28;20094;-79
2023/12/02 01:28:10;;;;;;;42.33;14.93;;;;;;;;;;5096763;28;20140;-78
2023/12/02 01:30:36;;;;;;;41.88;14.45;;;;;;;;;;5096522;28;20070;-80
2023/12/02 01:33:02;;;;;;;43.60;15.05;;;;;;;;;;5096735;28;20040;-80
2023/12/02 01:35:29;;;;;;;42.80;14.27;;;;;;;;;;5095484;28;20044;-79
2023/12/02 01:37:55;;;;;;;45.35;14.65;;;;;;;;;;5100242;28;20511;-80
2023/12/02 01:40:21;;;;;;;42.10;14.38;;;;;;;;;;5099953;28;20083;-79
2023/12/02 01:42:47;;;;;;;44.47;15.33;;;;;;;;;;5100066;28;20044;-79
2023/12/02 01:45:15;;;;;;;47.03;14.32;;;;;;;;;;5099280;28;20088;-78
2023/12/02 01:47:41;;;;;;;44.28;13.90;;;;;;;;;;5101213;28;20058;-79
2023/12/02 01:50:08;;;;;;;39.83;13.57;;;;;;;;;;5102634;28;20051;-78
2023/12/02 01:52:34;;;;;;;43.63;15.13;;;;;;;;;;5098339;28;20048;-80
2023/12/02 01:55:00;;;;;;;39.63;14.07;;;;;;;;;;5080150;28;20290;-80
2023/12/02 01:57:26;;;;;;;43.95;14.73;;;;;;;;;;5096828;28;20196;-78
2023/12/02 01:59:54;;;;;;;48.28;14.68;;;;;;;;;;5095479;28;20127;-78
2023/12/02 02:02:20;;;;;;;38.40;13.18;;;;;;;;;;5097818;28;20434;-78
2023/12/02 02:04:46;;;;;;;45.13;14.55;;;;;;;;;;5097192;28;20070;-77
2023/12/02 02:07:13;;;;;;;40.53;14.17;;;;;;;;;;5096407;28;20044;-79
2023/12/02 02:09:49;;;;;;;43.60;14.48;;;;;;;;;;5097419;28;20126;-79
2023/12/02 02:12:15;;;;;;;43.22;13.63;;;;;;;;;;5097942;28;20040;-81
2023/12/02 02:14:44;;;;;;;43.83;14.45;;;;;;;;;;5097412;28;20051;-77
2023/12/02 02:17:10;;;;;;;40.38;13.98;;;;;;;;;;5099061;28;20048;-78
2023/12/02 02:19:36;;;;;;;42.17;14.23;;;;;;;;;;5101469;28;20040;-78
2023/12/02 02:22:03;;;;;;;40.88;14.48;;;;;;;;;;5099059;28;20055;-79
2023/12/02 02:24:29;;;;;;;46.47;14.55;;;;;;;;;;5096415;28;20051;-77
2023/12/02 02:26:55;;;;;;;45.47;15.50;;;;;;;;;;5095238;28;20392;-80
2023/12/02 02:29:22;;;;;;;45.90;14.82;;;;;;;;;;5095497;28;20083;-79
2023/12/02 02:31:48;;;;;;;44.13;15.23;;;;;;;;;;5095778;28;20388;-79
2023/12/02 02:34:14;;;;;;;42.95;14.63;;;;;;;;;;5094252;28;20048;-79
2023/12/02 02:36:40;;;;;;;43.97;15.25;;;;;;;;;;5094891;28;20113;-79
2023/12/02 02:39:07;;;;;;;46.97;14.75;;;;;;;;;;5096735;28;20126;-79
2023/12/02 02:41:33;;;;;;;44.03;14.27;;;;;;;;;;5094684;28;20123;-79
2023/12/02 02:43:59;;;;;;;43.58;14.57;;;;;;;;;;5094427;28;20071;-80
2023/12/02 02:46:25;;;;;;;41.97;15.18;;;;;;;;;;5095511;28;20051;-79
2023/12/02 02:48:51;;;;;;;44.55;14.00;;;;;;;;;;5095932;28;20044;-79
2023/12/02 02:51:18;;;;;;;41.75;14.43;;;;;;;;;;5077679;28;20059;-79
2023/12/02 02:53:44;;;;;;;49.03;15.18;;;;;;;;;;5095619;28;20044;-79
2023/12/02 02:56:10;;;;;;;47.45;15.05;;;;;;;;;;5094977;28;20040;-78
2023/12/02 02:58:37;;;;;;;44.60;15.13;;;;;;;;;;5095017;28;20106;-78
2023/12/02 03:01:03;;;;;;;41.65;14.90;;;;;;;;;;5095357;28;20044;-79
2023/12/02 03:03:29;;;;;;;45.03;16.07;;;;;;;;;;5093387;28;20076;-79
2023/12/02 03:05:56;;;;;;;45.47;15.13;;;;;;;;;;5094762;28;20331;-80
2023/12/02 03:08:22;;;;;;;44.05;15.18;;;;;;;;;;5094595;28;20140;-80
2023/12/02 03:10:48;;;;;;;47.28;14.23;;;;;;;;;;5060393;28;20050;-78
2023/12/02 03:13:14;;;;;;;45.03;14.57;;;;;;;;;;5093367;28;20128;-80
2023/12/02 03:15:40;;;;;;;47.28;14.73;;;;;;;;;;5099143;28;20047;-78
2023/12/02 03:18:06;;;;;;;45.97;15.10;;;;;;;;;;5094827;28;20044;-79
2023/12/02 03:20:33;;;;;;;45.92;15.20;;;;;;;;;;5094526;28;20048;-79
2023/12/02 03:22:59;;;;;;;45.22;13.93;;;;;;;;;;5095448;28;20082;-78
2023/12/02 03:25:25;;;;;;;43.92;15.43;;;;;;;;;;5095920;28;20048;-80
2023/12/02 03:27:51;;;;;;;41.65;14.32;;;;;;;;;;5093712;28;20450;-79
2023/12/02 03:30:17;;;;;;;42.53;14.10;;;;;;;;;;5093923;28;20554;-78
2023/12/02 03:32:43;;;;;;;45.35;14.98;;;;;;;;;;5095206;28;20100;-78
2023/12/02 03:35:10;;;;;;;45.22;14.68;;;;;;;;;;5095030;28;20052;-80
2023/12/02 03:37:36;;;;;;;43.58;14.43;;;;;;;;;;5094966;28;20043;-79
2023/12/02 03:40:02;;;;;;;45.22;15.43;;;;;;;;;;5094767;28;20065;-79
2023/12/02 03:42:29;;;;;;;43.65;13.95;;;;;;;;;;5095070;28;20108;-79
2023/12/02 03:44:55;;;;;;;45.08;14.65;;;;;;;;;;5094150;28;20113;-79
2023/12/02 03:47:22;;;;;;;46.70;14.88;;;;;;;;;;5094537;28;20043;-78
2023/12/02 03:49:48;;;;;;;41.70;14.17;;;;;;;;;;5094248;28;20422;-78
2023/12/02 03:52:14;;;;;;;41.35;13.52;;;;;;;;;;5093972;28;20040;-79
2023/12/02 03:54:40;;;;;;;45.05;14.30;;;;;;;;;;5096348;28;20104;-78
2023/12/02 03:57:06;;;;;;;48.85;14.18;;;;;;;;;;5076589;28;20052;-77
2023/12/02 03:59:32;;;;;;;45.35;14.23;;;;;;;;;;5094975;28;20091;-76
2023/12/02 04:01:59;;;;;;;44.22;14.85;;;;;;;;;;5093765;28;20044;-79
2023/12/02 04:04:25;;;;;;;45.78;15.32;;;;;;;;;;5092355;28;20051;-79
2023/12/02 04:06:51;;;;;;;41.50;13.95;;;;;;;;;;5092354;28;20158;-80
2023/12/02 04:09:17;;;;;;;43.40;13.85;;;;;;;;;;5096083;28;20341;-78
2023/12/02 04:11:46;;;;;;;42.53;14.50;;;;;;;;;;5094082;28;20048;-78
2023/12/02 04:14:12;;;;;;;45.50;14.77;;;;;;;;;;5093959;28;20040;-79
2023/12/02 04:16:42;;;;;;;40.03;13.85;;;;;;;;;;5096273;28;20036;-78
2023/12/02 04:19:09;;;;;;;43.33;13.95;;;;;;;;;;5097791;28;20070;-77
2023/12/02 04:21:41;;;;;;;43.03;14.10;;;;;;;;;;5095327;28;20052;-74
2023/12/02 04:24:07;;;;;;;43.13;13.90;;;;;;;;;;5095133;28;20798;-78
2023/12/02 04:26:33;;;;;;;42.40;14.15;;;;;;;;;;5096898;28;20052;-79
2023/12/02 04:28:59;;;;;;;43.03;14.70;;;;;;;;;;5095187;28;20047;-78
2023/12/02 04:31:25;;;;;;;39.78;14.13;;;;;;;;;;5096788;28;20044;-78
2023/12/02 04:33:51;;;;;;;43.15;14.27;;;;;;;;;;5079748;28;20050;-78
2023/12/02 04:36:17;;;;;;;46.50;14.88;;;;;;;;;;5098045;28;20044;-79
2023/12/02 04:38:44;;;;;;;43.10;14.60;;;;;;;;;;5097088;28;20055;-78
2023/12/02 04:41:10;;;;;;;44.53;14.30;;;;;;;;;;5079826;28;20039;-79
2023/12/02 04:43:36;;;;;;;40.80;14.60;;;;;;;;;;5081247;28;20044;-78
2023/12/02 04:46:02;;;;;;;41.35;14.43;;;;;;;;;;5097364;28;20052;-79
2023/12/02 04:48:28;;;;;;;46.28;14.23;;;;;;;;;;5098292;28;20148;-78
2023/12/02 04:50:54;;;;;;;42.92;14.13;;;;;;;;;;5099991;28;20040;-77
2023/12/02 04:53:20;;;;;;;44.58;14.73;;;;;;;;;;5098244;28;20127;-78
2023/12/02 04:55:47;;;;;;;44.67;14.73;;;;;;;;;;5100979;28;20062;-78
2023/12/02 04:58:13;;;;;;;45.50;14.15;;;;;;;;;;5098297;28;20134;-79
2023/12/02 05:00:39;;;;;;;44.65;14.50;;;;;;;;;;5101549;28;20036;-75
2023/12/02 05:03:05;;;;;;;37.20;13.25;;;;;;;;;;5099249;28;20400;-79
2023/12/02 05:05:32;;;;;;;41.08;13.32;;;;;;;;;;5099404;28;20048;-78
2023/12/02 05:07:58;;;;;;;43.28;14.10;;;;;;;;;;5100167;28;20131;-79
2023/12/02 05:10:24;;;;;;;43.08;14.50;;;;;;;;;;5102288;28;20048;-78
2023/12/02 05:12:50;;;;;;;39.88;12.57;;;;;;;;;;5097780;28;20044;-79
2023/12/02 05:15:16;;;;;;;45.15;13.93;;;;;;;;;;5099531;28;20090;-77
2023/12/02 05:17:45;;;;;;;46.08;15.00;;;;;;;;;;5097993;28;20048;-77
2023/12/02 05:20:13;;;;;;;40.38;13.88;;;;;;;;;;5100136;28;20123;-77
2023/12/02 05:22:39;;;;;;;46.92;15.02;;;;;;;;;;5099698;28;20437;-80
2023/12/02 05:25:06;;;;;;;44.22;14.20;;;;;;;;;;5103063;28;20052;-79
2023/12/02 05:27:32;;;;;;;46.58;14.45;;;;;;;;;;5086549;28;20052;-78
2023/12/02 05:29:58;;;;;;;44.28;15.13;;;;;;;;;;5135340;27;20044;-79
2023/12/02 05:32:25;;;;;;;43.05;13.57;;;;;;;;;;5097247;28;20230;-78
2023/12/02 05:34:51;;;;;;;45.13;13.85;;;;;;;;;;5098179;28;20055;-76
2023/12/02 05:37:17;;;;;;;46.83;15.77;;;;;;;;;;5100296;28;20418;-80
2023/12/02 05:39:43;;;;;;;45.28;14.13;;;;;;;;;;5097272;28;20392;-77
2023/12/02 05:42:09;;;;;;;44.20;14.65;;;;;;;;;;5096874;28;20044;-76
2023/12/02 05:44:35;;;;;;;45.85;13.85;;;;;;;;;;5097721;28;20522;-78
2023/12/02 05:47:01;;;;;;;45.20;14.63;;;;;;;;;;5097653;28;20079;-78
2023/12/02 05:49:27;;;;;;;45.92;14.48;;;;;;;;;;5096765;28;20379;-78
2023/12/02 05:51:53;;;;;;;45.83;14.85;;;;;;;;;;5097748;28;20044;-78
2023/12/02 05:54:20;;;;;;;46.78;14.95;;;;;;;;;;5095175;28;20440;-78
2023/12/02 05:56:46;;;;;;;47.67;15.55;;;;;;;;;;5095430;28;20056;-79
2023/12/02 05:59:12;;;;;;;46.42;13.85;;;;;;;;;;5080040;28;20059;-79
2023/12/02 06:01:38;;;;;;;45.10;13.50;;;;;;;;;;5098604;28;20054;-77
2023/12/02 06:04:04;;;;;;;46.78;14.32;;;;;;;;;;5098027;28;20141;-77
2023/12/02 06:06:31;;;;;;;45.90;14.27;;;;;;;;;;5096696;28;20040;-78
2023/12/02 06:08:57;;;;;;;45.63;15.15;;;;;;;;;;5097371;28;20051;-76
2023/12/02 06:11:23;;;;;;;46.33;14.40;;;;;;;;;;5098429;28;20040;-77
2023/12/02 06:13:49;;;;;;;49.15;13.57;;;;;;;;;;5096841;28;20093;-75
2023/12/02 06:16:15;;;;;;;47.30;14.82;;;;;;;;;;5095891;28;20442;-75
2023/12/02 06:18:41;;;;;;;48.33;14.32;;;;;;;;;;5096339;28;20044;-77
2023/12/02 06:21:07;;;;;;;44.60;14.68;;;;;;;;;;5096601;28;20126;-79
2023/12/02 06:23:33;;;;;;;45.08;14.05;;;;;;;;;;5097038;28;20047;-78
2023/12/02 06:25:59;;;;;;;40.13;13.70;;;;;;;;;;5095819;28;20134;-78
2023/12/02 06:28:25;;;;;;;47.35;14.95;;;;;;;;;;5097551;28;20055;-76
2023/12/02 06:30:52;;;;;;;45.05;14.18;;;;;;;;;;5096190;28;20075;-79
2023/12/02 06:33:18;;;;;;;48.33;14.50;;;;;;;;;;5097022;28;20051;-77
2023/12/02 06:35:44;;;;;;;45.80;14.75;;;;;;;;;;5098337;28;20052;-76
2023/12/02 06:38:10;;;;;;;47.65;14.35;;;;;;;;;;5096953;28;20048;-78
2023/12/02 06:40:36;;;;;;;50.78;15.93;;;;;;;;;;5095668;28;20533;-78
2023/12/02 06:43:02;;;;;;;51.10;15.77;;;;;;;;;;5079221;28;20407;-77
2023/12/02 06:45:28;;;;;;;46.50;15.02;;;;;;;;;;5098182;28;20055;-76
2023/12/02 06:47:54;;;;;;;53.17;16.58;;;;;;;;;;5097180;28;20047;-79
2023/12/02 06:50:22;;;;;;;48.72;15.40;;;;;;;;;;5098478;28;20044;-79
2023/12/02 06:52:48;;;;;;;45.25;14.13;;;;;;;;;;5098738;28;20058;-79
2023/12/02 06:55:14;;;;;;;44.53;15.80;;;;;;;;;;5098938;28;20044;-77
2023/12/02 06:57:40;;;;;;;46.28;14.30;;;;;;;;;;5098997;28;20484;-77
2023/12/02 07:00:09;;;;;;;47.92;15.43;;;;;;;;;;5102228;28;20074;-79
2023/12/02 07:02:35;;;;;;;50.35;16.27;;;;;;;;;;5098562;28;20058;-77
2023/12/02 07:05:02;;;;;;;49.05;15.32;;;;;;;;;;5098529;28;20052;-78
2023/12/02 07:07:28;;;;;;;46.53;14.30;;;;;;;;;;5097947;28;20048;-79
2023/12/02 07:09:54;;;;;;;46.45;15.18;;;;;;;;;;5098610;28;20249;-79
2023/12/02 07:12:20;;;;;;;51.47;15.07;;;;;;;;;;5103219;28;20048;-79
2023/12/02 07:14:46;;;;;;;49.50;15.30;;;;;;;;;;5097733;28;20044;-77
2023/12/02 07:17:12;;;;;;;54.13;16.50;;;;;;;;;;5098811;28;20512;-78
2023/12/02 07:19:39;;;;;;;47.15;14.73;;;;;;;;;;5097194;28;20044;-78
2023/12/02 07:22:05;;;;;;;48.65;14.82;;;;;;;;;;5098928;28;20052;-77
2023/12/02 07:24:31;;;;;;;51.38;14.82;;;;;;;;;;5106187;28;20404;-78
2023/12/02 07:26:57;;;;;;;47.90;15.18;;;;;;;;;;5101009;28;20044;-77
2023/12/02 07:29:23;;;;;;;54.85;17.17;;;;;;;;;;5097542;28;20373;-75
2023/12/02 07:31:49;;;;;;;44.63;14.32;;;;;;;;;;5103317;28;20040;-77
2023/12/02 07:34:15;;;;;;;47.70;14.82;;;;;;;;;;5101594;28;20105;-79
2023/12/02 07:36:41;;;;;;;47.05;15.43;;;;;;;;;;5099618;28;20044;-77
2023/12/02 07:39:08;;;;;;;44.78;14.20;;;;;;;;;;5109408;28;20038;-76
2023/12/02 07:41:34;;;;;;;46.08;14.63;;;;;;;;;;5114758;28;20102;-78
2023/12/02 07:44:00;;;;;;;50.95;14.95;;;;;;;;;;5104485;28;20052;-75
2023/12/02 07:46:26;;;;;;;52.70;15.82;;;;;;;;;;5101160;28;20052;-78
2023/12/02 07:48:52;;;;;;;49.90;15.43;;;;;;;;;;5097678;28;20056;-78
2023/12/02 07:51:19;;;;;;;46.90;14.20;;;;;;;;;;5095737;28;20124;-78
2023/12/02 07:53:45;;;;;;;52.45;15.07;;;;;;;;;;5095822;28;20051;-77
2023/12/02 07:56:11;;;;;;;50.05;15.93;;;;;;;;;;5093009;28;20052;-74
2023/12/02 07:58:37;;;;;;;46.85;15.00;;;;;;;;;;5098088;28;20078;-75
2023/12/02 08:01:03;;;;;;;49.53;14.68;;;;;;;;;;5094143;28;20123;-73
2023/12/02 08:03:29;;;;;;;49.97;15.80;;;;;;;;;;5092559;28;20067;-76
2023/12/02 08:05:55;;;;;;;52.40;15.55;;;;;;;;;;5093716;28;20052;-75
2023/12/02 08:08:21;;;;;;;47.78;14.73;;;;;;;;;;5093579;28;20047;-74
2023/12/02 08:10:48;;;;;;;45.78;15.23;;;;;;;;;;5094220;28;20112;-75
2023/12/02 08:13:14;;;;;;;44.53;14.50;;;;;;;;;;5093331;28;20040;-75
2023/12/02 08:15:40;;;;;;;50.90;15.70;;;;;;;;;;5097338;28;20044;-77
2023/12/02 08:18:06;;;;;;;50.95;15.73;;;;;;;;;;5094591;28;20182;-75
2023/12/02 08:20:32;;;;;;;50.78;15.88;;;;;;;;;;5096974;28;20047;-77
2023/12/02 08:22:58;;;;;;;44.00;13.30;;;;;;;;;;5098615;28;20083;-76
2023/12/02 08:25:24;;;;;;;47.90;15.10;;;;;;;;;;5093011;28;20083;-77
2023/12/02 08:27:51;;;;;;;45.15;13.98;;;;;;;;;;5094960;28;20044;-75
2023/12/02 08:30:18;;;;;;;48.53;15.18;;;;;;;;;;5094240;28;20051;-76
2023/12/02 08:32:44;;;;;;;49.13;14.82;;;;;;;;;;5093691;28;20044;-77
2023/12/02 08:35:10;;;;;;;49.35;16.02;;;;;;;;;;5096950;28;20403;-78
2023/12/02 08:37:36;;;;;;;46.60;15.27;;;;;;;;;;5078354;28;20073;-78
2023/12/02 08:40:05;;;;;;;45.70;14.68;;;;;;;;;;5094829;28;20048;-76
2023/12/02 08:42:32;;;;;;;41.47;13.30;;;;;;;;;;5093929;28;20136;-76
2023/12/02 08:44:58;;;;;;;48.67;15.32;;;;;;;;;;5096227;28;20066;-76
2023/12/02 08:47:24;;;;;;;50.60;16.35;;;;;;;;;;5093983;28;20055;-76
2023/12/02 08:49:50;;;;;;;46.90;14.70;;;;;;;;;;5077058;28;20058;-77
2023/12/02 08:52:17;;;;;;;49.38;15.13;;;;;;;;;;5099875;28;20043;-76
2023/12/02 08:54:43;;;;;;;47.40;14.90;;;;;;;;;;5095688;28;20055;-76
2023/12/02 08:57:09;;;;;;;46.47;14.35;;;;;;;;;;5094063;28;20048;-74
2023/12/02 08:59:35;;;;;;;46.50;15.00;;;;;;;;;;5093801;28;20380;-75
2023/12/02 09:02:01;;;;;;;44.15;14.70;;;;;;;;;;5094056;28;20040;-77
2023/12/02 09:04:28;;;;;;;49.78;15.68;;;;;;;;;;5093975;28;20048;-75
2023/12/02 09:06:54;;;;;;;48.88;15.63;;;;;;;;;;5092796;28;20052;-75
2023/12/02 09:09:21;;;;;;;48.65;16.55;;;;;;;;;;5092733;28;20499;-75
2023/12/02 09:11:47;;;;;;;51.80;15.77;;;;;;;;;;5092244;28;20044;-77
2023/12/02 09:14:13;;;;;;;48.85;15.60;;;;;;;;;;5093089;28;20131;-73
2023/12/02 09:16:46;;;;;;;43.97;14.82;;;;;;;;;;5092167;28;20078;-74
2023/12/02 09:19:30;;;;;;;50.22;15.90;;;;;;;;;;5096758;28;20506;-75
2023/12/02 09:21:56;;;;;;;47.88;15.70;;;;;;;;;;5078432;28;20044;-77
2023/12/02 09:24:36;;;;;;;49.63;14.88;;;;;;;;;;5096604;28;20040;-78
2023/12/02 09:27:06;;;;;;;44.90;15.55;;;;;;;;;;5097083;28;20056;-75
2023/12/02 09:29:34;;;;;;;51.75;17.42;;;;;;;;;;5095736;28;20496;-75
2023/12/02 09:32:07;;;;;;;52.75;16.60;;;;;;;;;;5096164;28;20425;-74
2023/12/02 09:34:42;;;;;;;50.22;15.90;;;;;;;;;;5096814;28;20040;-77
2023/12/02 09:37:31;;;;;;;47.72;14.93;;;;;;;;;;5097577;28;20055;-78
2023/12/02 09:40:30;;;;;;;47.75;16.17;;;;;;;;;;5067155;28;20052;-78
2023/12/02 09:43:16;;;;;;;46.70;15.45;;;;;;;;;;5074102;28;20105;-77
2023/12/02 09:45:48;;;;;;;47.67;14.60;;;;;;;;;;5075416;28;20084;-77
2023/12/02 09:48:20;;;;;;;58.03;18.00;;;;;;;;;;5096421;28;20059;-77
2023/12/02 09:50:52;;;;;;;54.03;16.20;;;;;;;;;;5099463;28;20059;-75
2023/12/02 09:53:27;;;;;;;51.58;16.30;;;;;;;;;;5102422;28;20073;-75
2023/12/02 09:56:03;;;;;;;52.80;16.10;;;;;;;;;;5102096;28;20078;-77
2023/12/02 09:58:38;;;;;;;50.15;14.82;;;;;;;;;;5107780;28;20048;-76
2023/12/02 10:01:08;;;;;;;48.95;15.30;;;;;;;;;;5107245;28;20036;-76
2023/12/02 10:03:34;;;;;;;50.20;14.93;;;;;;;;;;5102618;28;20067;-77
2023/12/02 10:06:18;;;;;;;51.20;16.95;;;;;;;;;;5099544;28;20386;-77
2023/12/02 10:08:47;;;;;;;50.65;16.27;;;;;;;;;;5100711;28;20434;-77
2023/12/02 10:11:43;;;;;;;51.10;17.67;;;;;;;;;;5095404;28;20091;-74
2023/12/02 10:14:11;;;;;;;51.65;15.52;;;;;;;;;;5044764;28;20410;-75
2023/12/02 10:16:38;;;;;;;56.38;16.95;;;;;;;;;;5095087;28;20545;-77
2023/12/02 10:19:05;;;;;;;55.22;17.80;;;;;;;;;;5096148;28;20052;-76
2023/12/02 10:21:35;;;;;;;48.97;14.90;;;;;;;;;;5095368;28;20396;-75
2023/12/02 10:24:02;;;;;;;56.40;17.15;;;;;;;;;;5095815;28;20044;-76
2023/12/02 10:26:29;;;;;;;50.22;16.23;;;;;;;;;;5094901;28;20086;-75
2023/12/02 10:29:09;;;;;;;46.17;15.85;;;;;;;;;;5094080;28;20448;-76
2023/12/02 10:31:37;;;;;;;53.63;16.73;;;;;;;;;;5094664;28;20083;-75
2023/12/02 10:34:03;;;;;;;52.58;17.67;;;;;;;;;;5093944;28;20131;-75
2023/12/02 10:36:32;;;;;;;51.92;17.70;;;;;;;;;;5093385;28;20047;-73
2023/12/02 10:39:02;;;;;;;51.97;15.80;;;;;;;;;;5093391;28;20083;-75
2023/12/02 10:41:36;;;;;;;60.15;18.73;;;;;;;;;;5094868;28;20094;-74
2023/12/02 10:44:04;;;;;;;50.13;16.02;;;;;;;;;;5094614;28;20113;-74
2023/12/02 10:46:33;;;;;;;47.78;16.02;;;;;;;;;;5093457;28;20097;-75
2023/12/02 10:49:00;;;;;;;48.65;17.02;;;;;;;;;;5094444;28;20086;-74
2023/12/02 10:51:26;;;;;;;;;;;;;;;;;;5093746;28;20047;-73
2023/12/02 10:53:54;;;;;;;54.38;15.57;;;;;;;;;;5093426;28;19920;-74
2023/12/02 10:56:23;;;;;;;53.60;16.10;;;;;;;;;;5094461;28;20046;-72
2023/12/02 10:58:50;;;;;;;48.10;16.45;;;;;;;;;;5092808;28;20056;-73
2023/12/02 11:01:26;;;;;;;50.58;17.15;;;;;;;;;;5094753;28;20119;-74
2023/12/02 11:03:55;;;;;;;52.17;16.85;;;;;;;;;;5094486;28;20467;-74
2023/12/02 11:06:32;;;;;;;51.15;16.88;;;;;;;;;;5093155;28;20392;-76
2023/12/02 11:09:03;;;;;;;51.13;17.27;;;;;;;;;;5092801;28;20153;-75
2023/12/02 11:11:54;;;;;;;51.25;16.10;;;;;;;;;;5094824;28;20118;-76
2023/12/02 11:14:22;;;;;;;59.80;18.67;;;;;;;;;;5093579;28;20379;-76
2023/12/02 11:16:51;;;;;;;54.30;17.90;;;;;;;;;;5094000;28;20044;-74
2023/12/02 11:19:27;;;;;;;51.70;16.98;;;;;;;;;;5093863;28;20139;-74
2023/12/02 11:22:11;;;;;;;48.75;17.30;;;;;;;;;;5094506;28;20055;-73
2023/12/02 11:24:50;;;;;;;55.90;17.60;;;;;;;;;;5092499;28;20074;-74
2023/12/02 11:27:16;;;;;;;48.05;15.68;;;;;;;;;;5093820;28;20087;-74
2023/12/02 11:29:49;;;;;;;51.85;16.88;;;;;;;;;;5093067;28;20048;-74
2023/12/02 11:32:31;;;;;;;55.50;16.75;;;;;;;;;;5092801;28;20142;-76
2023/12/02 11:35:03;;;;;;;48.30;15.30;;;;;;;;;;5093765;28;20048;-75
2023/12/02 11:37:48;;;;;;;58.75;18.30;;;;;;;;;;5093644;28;20485;-73
2023/12/02 11:40:27;;;;;;;52.53;17.20;;;;;;;;;;5091625;28;20044;-75
2023/12/02 11:42:53;;;;;;;53.13;16.13;;;;;;;;;;5093649;28;20048;-74
2023/12/02 11:45:26;;;;;;;56.72;18.25;;;;;;;;;;5092467;28;20147;-76
2023/12/02 11:47:52;;;;;;;55.38;17.55;;;;;;;;;;5092733;28;20087;-74
2023/12/02 11:50:26;;;;;;;55.22;18.08;;;;;;;;;;5075480;28;20055;-75
2023/12/02 11:53:04;;;;;;;56.22;17.50;;;;;;;;;;5094066;28;20230;-76
2023/12/02 11:55:36;;;;;;;56.03;17.02;;;;;;;;;;5126521;27;20101;-74
2023/12/02 11:58:20;;;;;;;55.92;18.25;;;;;;;;;;5094298;28;20403;-75
2023/12/02 12:01:01;;;;;;;53.72;16.20;;;;;;;;;;5093630;28;20431;-75
2023/12/02 12:03:39;;;;;;;55.20;17.77;;;;;;;;;;5094021;28;20130;-74
2023/12/02 12:06:14;;;;;;;54.20;17.48;;;;;;;;;;5094028;28;20120;-75
2023/12/02 12:09:00;;;;;;;53.72;17.67;;;;;;;;;;5092310;28;20062;-74
2023/12/02 12:11:29;;;;;;;50.25;17.13;;;;;;;;;;5071957;28;20102;-75
2023/12/02 12:13:55;;;;;;;53.42;17.05;;;;;;;;;;5094711;28;20047;-74
2023/12/02 12:16:21;;;;;;;53.17;16.67;;;;;;;;;;5094923;28;20080;-75
2023/12/02 12:18:48;;;;;;;59.00;17.67;;;;;;;;;;5099745;28;20359;-73
2023/12/02 12:21:14;;;;;;;55.55;17.58;;;;;;;;;;5109170;28;20052;-73
2023/12/02 12:23:40;;;;;;;54.40;17.90;;;;;;;;;;5104709;28;20055;-73
2023/12/02 12:26:06;;;;;;;51.47;17.13;;;;;;;;;;5075554;28;20052;-73
2023/12/02 12:28:34;;;;;;;53.53;18.33;;;;;;;;;;5075407;28;20051;-73
2023/12/02 12:31:01;;;;;;;53.88;17.77;;;;;;;;;;5093671;28;20278;-73
2023/12/02 12:33:29;;;;;;;50.15;16.40;;;;;;;;;;5091988;28;20040;-74
2023/12/02 12:35:55;;;;;;;53.78;16.85;;;;;;;;;;5093519;28;20105;-74
2023/12/02 12:38:22;;;;;;;51.47;16.98;;;;;;;;;;5093159;28;20202;-74
2023/12/02 12:40:50;;;;;;;54.23;17.53;;;;;;;;;;5093124;28;20051;-74
2023/12/02 12:43:18;;;;;;;49.53;16.10;;;;;;;;;;5093007;28;20040;-74
2023/12/02 12:45:44;;;;;;;;;;;;;;;;;;5093604;28;20083;-74
2023/12/02 12:48:10;;;;;;;52.47;16.10;;;;;;;;;;5091933;28;19920;-74
2023/12/02 12:50:38;;;;;;;52.15;15.82;;;;;;;;;;5092939;28;20257;-73
2023/12/02 12:53:11;;;;;;;50.25;16.13;;;;;;;;;;5095276;28;20055;-74
2023/12/02 12:55:41;;;;;;;56.60;17.83;;;;;;;;;;5095648;28;20055;-74
2023/12/02 12:58:07;;;;;;;57.53;17.88;;;;;;;;;;5097229;28;20044;-75
2023/12/02 13:00:35;;;;;;;59.28;18.33;;;;;;;;;;5095321;28;20044;-74
2023/12/02 13:03:01;;;;;;;;;;;;;;;;;;5096856;28;20055;-72
2023/12/02 13:05:39;;;;;;;52.72;15.77;;;;;;;;;;5096480;28;19919;-74
2023/12/02 13:08:20;;;;;;;56.45;17.50;;;;;;;;;;5096402;28;20067;-74
2023/12/02 13:10:47;;;;;;;52.03;16.30;;;;;;;;;;5095410;28;20056;-73
2023/12/02 13:13:15;;;;;;;53.80;17.75;;;;;;;;;;5095458;28;20074;-75
2023/12/02 13:15:42;;;;;;;52.55;16.67;;;;;;;;;;5078512;28;20105;-73
2023/12/02 13:18:09;;;;;;;51.35;15.68;;;;;;;;;;5096272;28;20093;-74
2023/12/02 13:20:36;;;;;;;49.10;15.93;;;;;;;;;;5094937;28;20471;-73
2023/12/02 13:23:06;;;;;;;57.15;17.38;;;;;;;;;;5094761;28;20113;-75
2023/12/02 13:25:37;;;;;;;56.33;17.50;;;;;;;;;;5096063;28;20094;-74
2023/12/02 13:28:06;;;;;;;53.15;17.38;;;;;;;;;;5096464;28;20123;-74
2023/12/02 13:30:35;;;;;;;51.10;17.38;;;;;;;;;;5095894;28;20464;-74
2023/12/02 13:33:07;;;;;;;57.08;18.60;;;;;;;;;;5096023;28;20039;-74
2023/12/02 13:35:35;;;;;;;60.20;18.60;;;;;;;;;;5078626;28;20085;-74
2023/12/02 13:38:04;;;;;;;60.13;17.67;;;;;;;;;;5095816;28;20053;-75
2023/12/02 13:40:38;;;;;;;55.25;17.83;;;;;;;;;;5094841;28;20036;-74
2023/12/02 13:43:06;;;;;;;59.20;16.95;;;;;;;;;;5094818;28;20105;-74
2023/12/02 13:45:33;;;;;;;58.58;17.90;;;;;;;;;;5095979;28;20470;-74
2023/12/02 13:47:59;;;;;;;54.70;17.33;;;;;;;;;;5095728;28;20044;-73
2023/12/02 13:50:29;;;;;;;59.40;20.05;;;;;;;;;;5078179;28;20497;-73
2023/12/02 13:53:04;;;;;;;72.90;22.83;;;;;;;;;;5096355;28;20154;-74
2023/12/02 13:55:43;;;;;;;55.67;18.45;;;;;;;;;;5078567;28;20380;-74
2023/12/02 13:58:12;;;;;;;51.58;15.80;;;;;;;;;;5094642;28;20048;-74
2023/12/02 14:00:44;;;;;;;55.63;17.73;;;;;;;;;;5095165;28;20044;-74
2023/12/02 14:03:13;;;;;;;54.35;18.70;;;;;;;;;;5094541;28;20413;-75
2023/12/02 14:05:48;;;;;;;62.20;18.23;;;;;;;;;;5096296;28;20075;-72
2023/12/02 14:08:17;;;;;;;52.25;17.77;;;;;;;;;;5094801;28;20508;-75
2023/12/02 14:10:45;;;;;;;56.60;16.85;;;;;;;;;;5095767;28;20044;-73
2023/12/02 14:13:23;;;;;;;58.78;17.35;;;;;;;;;;5095162;28;20048;-75
2023/12/02 14:16:18;;;;;;;55.47;16.95;;;;;;;;;;5095241;28;20146;-71
2023/12/02 14:18:44;;;;;;;54.95;16.52;;;;;;;;;;5085988;28;20059;-73
2023/12/02 14:21:10;;;;;;;58.90;16.38;;;;;;;;;;5095001;28;20075;-73
2023/12/02 14:23:57;;;;;;;53.72;15.90;;;;;;;;;;5095068;28;20044;-73